Impacts TAF Board
For situational awareness. Not to be used for flight planning purposes.
IDs:

KCVG - Cincinnati Intl, KY, US

Issued at 0856 UTC 17 Feb 2019
Updated at 1018 UTC 17 Feb 2019
Potential Impact None Slight Moderate High
Time<<17/23Z 18/00Z 18/01Z 18/02Z 18/03Z 18/04Z 18/05Z 18/06Z 18/07Z 18/08Z 18/09Z 18/10Z 18/11Z>>
Type PRVL PRVL PRVL PRVL PRVL PRVL PRVL PRVL PRVL PRVL PRVL PRVL PRVL
VIS 5 5 5 5 5 5 5 5 5 5 5 5 5
CIG 5 5 5 5 5 5 5 5 5 5 5 5 5
Cover OVC OVC OVC OVC OVC OVC OVC OVC OVC OVC OVC OVC OVC
FltCat IFR IFR IFR IFR IFR IFR IFR IFR IFR IFR IFR IFR IFR
WX BR BR BR BR BR BR BR BR BR BR BR BR BR
WDir 320 320 320 320 320 320 320 320 320 320 320 320 320
WSpd 4 4 4 4 4 4 4 4 4 4 4 4 4
WGst -- -- -- -- -- -- -- -- -- -- -- -- --
Raw TAF
KCVG 170856Z 1709/1812 08012KT P6SM BKN100
  FM171000 07010KT P6SM BKN070
  FM171400 09007KT P6SM VCSH OVC022
  FM171700 11005KT 4SM -RA OVC012
  TEMPO 1717/1719 4SM -FZRA
  FM172000 11004KT 4SM -RA BR OVC008
  FM172200 32004KT 5SM BR OVC005


METAR Board
Radar Display
Forecast Discussion
For situational awareness. Not to be used for flight planning purposes.